Time;durP1;ratioP1;P1;durP2;ratioP2;P2;SDS_P1;SDS_P2;PMS_P1;PMS_P2;Temp;Humidity;BMP_temperature;BMP_pressure;BME280_temperature;BME280_humidity;BME280_pressure;Samples;Min_cycle;Max_cycle;Signal;HPM_P1;HPM_P2
2023/03/08 00:02:01;;;;;;;19.15;15.07;;;;;;;2.47;100.00;99987.59;5220898;28;20025;-77
2023/03/08 00:04:33;;;;;;;17.33;14.55;;;;;;;2.43;100.00;99989.53;5224804;28;20160;-76
2023/03/08 00:07:04;;;;;;;16.58;13.52;;;;;;;2.44;100.00;99994.59;5236196;28;20022;-76
2023/03/08 00:09:37;;;;;;;18.45;14.27;;;;;;;2.46;100.00;99991.91;5237590;28;20460;-77
2023/03/08 00:12:09;;;;;;;18.92;15.13;;;;;;;2.39;100.00;99983.75;5221838;28;20313;-77
2023/03/08 00:14:40;;;;;;;18.77;15.27;;;;;;;2.44;100.00;99980.84;5220773;28;20037;-76
2023/03/08 00:17:12;;;;;;;20.88;15.30;;;;;;;2.42;100.00;99987.88;5223154;28;20079;-76
2023/03/08 00:19:43;;;;;;;16.58;13.88;;;;;;;2.43;100.00;99986.97;5223178;28;20125;-76
2023/03/08 00:22:14;;;;;;;20.58;15.38;;;;;;;2.41;100.00;99979.28;5220018;28;20399;-76
2023/03/08 00:24:46;;;;;;;21.48;15.73;;;;;;;2.43;100.00;99984.38;5221451;28;20526;-77
2023/03/08 00:27:17;;;;;;;18.70;15.95;;;;;;;2.47;100.00;99996.16;5226629;28;20025;-76
2023/03/08 00:29:48;;;;;;;19.23;15.38;;;;;;;2.47;100.00;99985.81;5237776;28;20029;-77
2023/03/08 00:32:20;;;;;;;18.63;16.25;;;;;;;2.49;100.00;99994.31;5239400;28;20410;-77
2023/03/08 00:34:52;;;;;;;17.20;14.68;;;;;;;2.48;100.00;99986.66;5227311;28;20384;-76
2023/03/08 00:37:23;;;;;;;19.05;15.23;;;;;;;2.53;100.00;99993.16;5228690;28;20028;-77
2023/03/08 00:39:54;;;;;;;21.30;16.45;;;;;;;2.49;100.00;99976.19;5237226;28;20026;-77
2023/03/08 00:42:26;;;;;;;20.38;15.00;;;;;;;2.54;100.00;99987.09;5225026;28;20028;-77
2023/03/08 00:44:57;;;;;;;19.38;15.15;;;;;;;2.54;100.00;99978.47;5231665;28;20021;-77
2023/03/08 00:47:28;;;;;;;26.15;16.17;;;;;;;2.52;100.00;99973.41;5228492;28;20050;-77
2023/03/08 00:50:00;;;;;;;21.15;16.75;;;;;;;2.46;100.00;99963.47;5217830;28;20026;-77
2023/03/08 00:52:31;;;;;;;20.08;17.25;;;;;;;2.54;100.00;99975.91;5225245;28;20061;-77
2023/03/08 00:55:02;;;;;;;21.50;16.63;;;;;;;2.49;100.00;99972.78;5227883;28;20115;-77
2023/03/08 00:57:34;;;;;;;21.08;17.90;;;;;;;2.52;100.00;99970.84;5222483;28;20052;-77
2023/03/08 01:00:07;;;;;;;22.48;17.95;;;;;;;2.49;100.00;99955.53;5228622;28;20501;-77
2023/03/08 01:02:41;;;;;;;22.95;18.30;;;;;;;2.53;100.00;99972.47;5225944;28;20026;-77
2023/03/08 01:05:13;;;;;;;21.92;17.48;;;;;;;2.57;100.00;99967.94;5229095;28;20116;-77
2023/03/08 01:07:44;;;;;;;23.30;18.60;;;;;;;2.57;100.00;99958.41;5224364;28;20128;-77
2023/03/08 01:10:16;;;;;;;22.85;18.80;;;;;;;2.54;100.00;99961.22;5225532;28;20056;-77
2023/03/08 01:12:47;;;;;;;26.50;19.25;;;;;;;2.52;100.00;99949.31;5225591;28;20088;-77
2023/03/08 01:15:18;;;;;;;22.58;18.88;;;;;;;2.53;100.00;99949.22;5228126;28;20398;-77
2023/03/08 01:17:50;;;;;;;21.73;18.33;;;;;;;2.58;100.00;99939.41;5226952;28;20022;-77
2023/03/08 01:20:21;;;;;;;23.10;18.50;;;;;;;2.57;100.00;99939.50;5226030;28;20044;-77
2023/03/08 01:22:52;;;;;;;25.27;20.10;;;;;;;2.57;100.00;99929.16;5223759;28;20017;-77
2023/03/08 01:25:24;;;;;;;25.52;20.05;;;;;;;2.50;100.00;99922.72;5229497;28;20076;-76
2023/03/08 01:27:55;;;;;;;26.35;20.60;;;;;;;2.61;100.00;99925.44;5229307;28;20034;-77
2023/03/08 01:30:27;;;;;;;28.30;21.38;;;;;;;2.60;100.00;99922.03;5222690;28;20041;-77
2023/03/08 01:32:58;;;;;;;27.80;22.00;;;;;;;2.59;100.00;99920.38;5227573;28;20072;-77
2023/03/08 01:35:29;;;;;;;29.85;22.50;;;;;;;2.61;100.00;99910.78;5225745;28;20060;-77
2023/03/08 01:38:00;;;;;;;29.33;22.73;;;;;;;2.63;100.00;99895.97;5230038;28;20391;-77
2023/03/08 01:40:32;;;;;;;30.40;22.50;;;;;;;2.63;100.00;99900.31;5220207;28;20025;-77
2023/03/08 01:43:23;;;;;;;31.27;23.23;;;;;;;2.90;100.00;99902.78;5229045;28;20360;-77
2023/03/08 01:46:21;;;;;;;31.10;23.63;;;;;;;2.77;100.00;99892.47;5221115;28;20038;-77
2023/03/08 01:48:55;;;;;;;28.42;23.20;;;;;;;2.66;100.00;99892.34;5221714;28;20037;-77
2023/03/08 01:51:34;;;;;;;31.52;24.25;;;;;;;2.79;100.00;99885.41;5225994;28;20037;-77
2023/03/08 01:54:12;;;;;;;34.03;24.48;;;;;;;2.75;100.00;99888.31;5224555;28;20518;-77
2023/03/08 01:56:46;;;;;;;35.75;24.75;;;;;;;2.70;100.00;99883.47;5225518;28;20053;-77
2023/03/08 01:59:21;;;;;;;31.38;24.15;;;;;;;2.78;100.00;99880.34;5227297;28;20285;-77
2023/03/08 02:01:52;;;;;;;32.08;24.95;;;;;;;2.76;100.00;99885.63;5222369;28;20025;-77
2023/03/08 02:04:25;;;;;;;32.53;24.33;;;;;;;2.79;100.00;99880.25;5226088;28;20025;-77
2023/03/08 02:06:56;;;;;;;38.10;27.02;;;;;;;2.77;100.00;99878.72;5225317;28;20083;-77
2023/03/08 02:09:27;;;;;;;34.60;25.55;;;;;;;2.78;100.00;99882.94;5219701;28;20037;-77
2023/03/08 02:12:02;;;;;;;31.80;25.10;;;;;;;2.76;100.00;99869.28;5222221;28;20021;-77
2023/03/08 02:14:34;;;;;;;34.95;27.08;;;;;;;2.69;100.00;99855.97;5225343;28;20042;-77
2023/03/08 02:17:05;;;;;;;34.40;26.45;;;;;;;2.75;100.00;99857.28;5228178;28;20123;-77
2023/03/08 02:19:54;;;;;;;37.50;26.77;;;;;;;2.98;100.00;99853.94;5224346;28;20041;-77
2023/03/08 02:22:26;;;;;;;34.90;25.65;;;;;;;2.78;100.00;99842.38;5225921;28;20029;-77
2023/03/08 02:24:57;;;;;;;36.35;26.90;;;;;;;2.79;100.00;99840.63;5225974;28;20213;-77
2023/03/08 02:27:28;;;;;;;34.88;26.42;;;;;;;2.81;100.00;99838.78;5228143;28;20217;-77
2023/03/08 02:30:02;;;;;;;35.05;27.48;;;;;;;2.82;100.00;99841.25;5218676;28;20038;-77
2023/03/08 02:32:33;;;;;;;37.00;27.65;;;;;;;2.83;100.00;99836.88;5223982;28;20030;-76
2023/03/08 02:35:05;;;;;;;34.35;26.05;;;;;;;2.81;100.00;99826.66;5241025;28;20037;-76
2023/03/08 02:37:36;;;;;;;37.35;26.60;;;;;;;2.83;100.00;99835.13;5227848;28;20021;-77
2023/03/08 02:40:10;;;;;;;34.92;25.95;;;;;;;2.84;100.00;99816.09;5224259;28;20034;-77
2023/03/08 02:42:41;;;;;;;38.20;28.10;;;;;;;2.89;100.00;99826.13;5227414;28;20471;-77
2023/03/08 02:45:12;;;;;;;37.67;27.55;;;;;;;2.90;100.00;99820.00;5226842;28;20075;-77
2023/03/08 02:47:44;;;;;;;34.08;26.23;;;;;;;2.87;100.00;99821.03;5237919;28;20105;-77
2023/03/08 02:50:15;;;;;;;34.35;26.50;;;;;;;2.85;100.00;99822.09;5222258;28;20040;-77
2023/03/08 02:52:47;;;;;;;34.60;26.42;;;;;;;2.86;100.00;99821.97;5225984;28;20022;-76
2023/03/08 02:55:18;;;;;;;38.00;27.20;;;;;;;2.88;100.00;99820.13;5239131;28;20457;-76
2023/03/08 02:57:49;;;;;;;34.70;26.75;;;;;;;2.86;100.00;99810.81;5223990;28;20029;-77
2023/03/08 03:00:21;;;;;;;37.60;27.80;;;;;;;2.87;100.00;99809.88;5221134;28;20022;-76
2023/03/08 03:02:52;;;;;;;35.38;26.33;;;;;;;2.83;100.00;99801.50;5224286;28;20033;-77
2023/03/08 03:05:24;;;;;;;33.38;26.45;;;;;;;2.83;100.00;99796.31;5227106;28;20033;-77
2023/03/08 03:07:57;;;;;;;30.02;24.45;;;;;;;2.87;100.00;99804.69;5225914;28;20033;-77
2023/03/08 03:10:28;;;;;;;31.17;24.92;;;;;;;2.88;100.00;99790.84;5224022;28;20119;-77
2023/03/08 03:13:02;;;;;;;33.85;25.88;;;;;;;2.89;100.00;99788.16;5222478;28;20243;-77
2023/03/08 03:15:38;;;;;;;31.98;25.17;;;;;;;2.99;100.00;99793.50;5223933;28;20071;-77
2023/03/08 03:18:09;;;;;;;32.03;24.40;;;;;;;2.95;100.00;99786.88;5223418;28;20029;-78
2023/03/08 03:20:40;;;;;;;29.17;24.30;;;;;;;2.90;100.00;99773.44;5221712;28;20029;-78
2023/03/08 03:23:11;;;;;;;31.40;25.65;;;;;;;2.95;100.00;99780.88;5227569;28;20018;-80
2023/03/08 03:25:43;;;;;;;29.92;24.58;;;;;;;2.97;100.00;99774.69;5239127;28;20478;-77
2023/03/08 03:28:14;;;;;;;32.05;25.48;;;;;;;2.92;100.00;99766.41;5221142;28;20479;-77
2023/03/08 03:30:46;;;;;;;35.30;26.13;;;;;;;2.98;100.00;99765.97;5225185;28;20128;-78
2023/03/08 03:33:17;;;;;;;35.60;26.80;;;;;;;2.93;100.00;99743.03;5222235;28;20036;-78
2023/03/08 03:35:49;;;;;;;34.95;26.77;;;;;;;2.97;100.00;99745.41;5220972;28;20468;-77
2023/03/08 03:38:20;;;;;;;32.95;24.88;;;;;;;2.95;100.00;99737.72;5228235;28;20115;-77
2023/03/08 03:40:59;;;;;;;31.30;24.63;;;;;;;3.05;100.00;99733.56;5223427;28;20164;-77
2023/03/08 03:43:31;;;;;;;30.55;24.83;;;;;;;2.96;100.00;99741.16;5222297;28;20045;-77
2023/03/08 03:46:06;;;;;;;35.88;25.60;;;;;;;2.98;100.00;99740.09;5225769;28;20026;-79
2023/03/08 03:48:38;;;;;;;32.05;25.15;;;;;;;2.89;100.00;99733.00;5223022;28;20087;-77
2023/03/08 03:51:12;;;;;;;42.00;27.65;;;;;;;2.97;100.00;99732.47;5227686;28;20421;-77
2023/03/08 03:53:43;;;;;;;34.28;26.38;;;;;;;2.90;100.00;99745.81;5217823;28;20034;-77
2023/03/08 03:56:20;;;;;;;36.25;26.58;;;;;;;3.03;100.00;99727.69;5224735;28;20046;-77
2023/03/08 03:58:52;;;;;;;34.05;25.95;;;;;;;2.89;100.00;99720.06;5226160;28;20427;-77
2023/03/08 04:01:26;;;;;;;33.50;26.17;;;;;;;2.92;100.00;99714.69;5221997;28;20061;-77
2023/03/08 04:03:58;;;;;;;34.88;27.55;;;;;;;2.94;100.00;99725.72;5230495;28;20033;-77
2023/03/08 04:06:32;;;;;;;35.25;25.15;;;;;;;2.84;100.00;99699.72;5225490;28;20088;-77
2023/03/08 04:09:07;;;;;;;27.52;23.38;;;;;;;2.84;100.00;99712.63;5223149;28;20056;-77
2023/03/08 04:11:39;;;;;;;30.08;24.42;;;;;;;2.82;100.00;99711.91;5222208;28;20030;-79
2023/03/08 04:14:10;;;;;;;29.23;22.77;;;;;;;2.70;100.00;99697.25;5222587;28;20034;-77
2023/03/08 04:16:41;;;;;;;31.45;22.88;;;;;;;2.77;100.00;99705.44;5225452;28;20071;-78
2023/03/08 04:19:13;;;;;;;27.30;22.55;;;;;;;2.71;100.00;99680.00;5224598;28;20044;-77
2023/03/08 04:21:44;;;;;;;25.27;21.25;;;;;;;2.74;100.00;99680.59;5223411;28;20052;-77
2023/03/08 04:24:15;;;;;;;23.48;19.25;;;;;;;2.83;100.00;99673.94;5224125;28;20034;-78
2023/03/08 04:26:46;;;;;;;23.35;19.52;;;;;;;2.89;100.00;99681.28;5220392;28;20486;-76
2023/03/08 04:29:18;;;;;;;24.15;19.95;;;;;;;2.85;100.00;99672.06;5226272;28;20033;-78
2023/03/08 04:31:49;;;;;;;23.90;19.63;;;;;;;2.89;100.00;99678.69;5220384;28;20033;-77
2023/03/08 04:34:20;;;;;;;21.58;17.77;;;;;;;2.85;100.00;99664.31;5223085;28;20018;-77
2023/03/08 04:36:52;;;;;;;20.15;17.33;;;;;;;2.82;100.00;99661.94;5225740;28;20028;-77
2023/03/08 04:39:23;;;;;;;19.52;16.70;;;;;;;2.83;100.00;99655.81;5223894;28;20609;-77
2023/03/08 04:41:54;;;;;;;21.02;16.83;;;;;;;2.85;100.00;99659.97;5223115;28;20025;-77
2023/03/08 04:44:25;;;;;;;19.10;16.08;;;;;;;2.81;100.00;99644.78;5222367;28;20029;-77
2023/03/08 04:46:57;;;;;;;20.55;17.98;;;;;;;2.86;100.00;99650.44;5226300;28;20577;-77
2023/03/08 04:49:28;;;;;;;21.70;16.83;;;;;;;2.85;100.00;99651.38;5222208;28;20036;-78
2023/03/08 04:52:00;;;;;;;20.60;17.33;;;;;;;2.81;100.00;99642.19;5222220;28;20601;-77
2023/03/08 04:54:31;;;;;;;19.88;16.65;;;;;;;2.80;100.00;99637.94;5236616;28;20541;-77
2023/03/08 04:57:02;;;;;;;18.55;15.70;;;;;;;2.80;100.00;99633.59;5223103;28;20037;-77
2023/03/08 04:59:34;;;;;;;20.20;17.35;;;;;;;2.80;100.00;99635.34;5235231;28;20072;-77
2023/03/08 05:02:05;;;;;;;18.77;15.63;;;;;;;2.78;100.00;99626.91;5223958;28;20029;-78
2023/03/08 05:04:36;;;;;;;18.98;16.02;;;;;;;2.79;100.00;99623.38;5225272;28;20029;-77
2023/03/08 05:07:07;;;;;;;16.73;14.48;;;;;;;2.77;100.00;99600.22;5223552;28;20025;-77
2023/03/08 05:09:39;;;;;;;17.52;14.68;;;;;;;2.80;100.00;99607.72;5235972;28;20017;-77
2023/03/08 05:12:10;;;;;;;17.60;15.13;;;;;;;2.67;100.00;99592.28;5220319;28;20033;-77
2023/03/08 05:14:41;;;;;;;17.88;14.38;;;;;;;2.71;100.00;99594.66;5219763;28;20041;-77
2023/03/08 05:17:12;;;;;;;18.05;14.68;;;;;;;2.73;100.00;99597.94;5219580;28;20040;-77
2023/03/08 05:19:44;;;;;;;18.08;13.95;;;;;;;2.71;100.00;99592.06;5224050;28;20053;-77
2023/03/08 05:22:15;;;;;;;19.58;14.20;;;;;;;2.73;100.00;99590.16;5220601;28;20036;-76
2023/03/08 05:24:47;;;;;;;17.25;14.35;;;;;;;2.77;100.00;99583.88;5239147;28;20528;-77
2023/03/08 05:27:18;;;;;;;17.77;14.32;;;;;;;2.68;100.00;99583.56;5236723;28;20467;-77
2023/03/08 05:29:51;;;;;;;16.50;13.73;;;;;;;2.69;100.00;99579.25;5223215;28;20056;-80
2023/03/08 05:32:22;;;;;;;18.20;15.10;;;;;;;2.69;100.00;99566.31;5222625;28;20029;-78
2023/03/08 05:34:53;;;;;;;17.33;13.73;;;;;;;2.64;100.00;99561.47;5224504;28;20487;-78
2023/03/08 05:37:25;;;;;;;17.83;14.05;;;;;;;2.62;100.00;99552.19;5222451;28;20092;-77
2023/03/08 05:39:56;;;;;;;15.18;13.07;;;;;;;2.60;100.00;99549.69;5225793;28;20139;-76
2023/03/08 05:42:31;;;;;;;14.95;11.93;;;;;;;2.63;100.00;99546.06;5226170;28;20021;-77
2023/03/08 05:45:02;;;;;;;15.45;12.88;;;;;;;2.55;100.00;99541.47;5223158;28;20025;-80
2023/03/08 05:47:34;;;;;;;16.40;12.93;;;;;;;2.48;100.00;99529.91;5223390;28;20116;-77
2023/03/08 05:50:05;;;;;;;14.77;12.35;;;;;;;2.51;100.00;99529.69;5242703;28;20112;-77
2023/03/08 05:52:37;;;;;;;14.23;11.75;;;;;;;2.50;100.00;99522.88;5221288;28;20318;-77
2023/03/08 05:55:09;;;;;;;12.73;10.25;;;;;;;2.36;100.00;99505.78;5222301;28;20543;-76
2023/03/08 05:57:40;;;;;;;13.15;8.80;;;;;;;2.38;100.00;99518.56;5220849;28;20061;-76
2023/03/08 06:00:12;;;;;;;12.13;9.32;;;;;;;2.41;100.00;99508.84;5221894;28;20105;-77
2023/03/08 06:02:43;;;;;;;10.40;8.27;;;;;;;2.31;100.00;99507.88;5219560;28;20061;-77
2023/03/08 06:05:15;;;;;;;10.57;7.82;;;;;;;2.30;100.00;99500.22;5222772;28;20040;-77
2023/03/08 06:07:46;;;;;;;11.43;9.30;;;;;;;2.28;100.00;99496.94;5223302;28;20480;-77
2023/03/08 06:10:17;;;;;;;11.65;8.60;;;;;;;2.16;100.00;99494.28;5222632;28;20030;-77
2023/03/08 06:12:48;;;;;;;9.25;7.53;;;;;;;2.26;100.00;99498.78;5222057;28;20034;-77
2023/03/08 06:15:20;;;;;;;9.75;7.70;;;;;;;2.20;100.00;99500.06;5223086;28;20025;-77
2023/03/08 06:17:52;;;;;;;9.82;7.60;;;;;;;2.22;100.00;99507.69;5223363;28;20551;-76
2023/03/08 06:20:24;;;;;;;10.10;6.43;;;;;;;2.21;100.00;99501.72;5220129;28;20445;-76
2023/03/08 06:22:55;;;;;;;8.77;6.30;;;;;;;2.17;100.00;99501.09;5218496;28;20106;-77
2023/03/08 06:25:26;;;;;;;10.98;6.18;;;;;;;2.13;100.00;99499.69;5221469;28;20032;-79
2023/03/08 06:27:57;;;;;;;7.45;5.55;;;;;;;2.02;100.00;99484.13;5221804;28;20033;-77
2023/03/08 06:30:29;;;;;;;7.90;5.75;;;;;;;2.12;100.00;99494.59;5223256;28;20042;-76
2023/03/08 06:33:00;;;;;;;8.93;5.95;;;;;;;2.16;100.00;99483.13;5222407;28;20467;-78
2023/03/08 06:35:31;;;;;;;7.78;5.95;;;;;;;2.11;100.00;99482.63;5224403;28;20025;-76
2023/03/08 06:38:03;;;;;;;7.97;5.85;;;;;;;2.04;100.00;99471.91;5226715;28;20099;-77
2023/03/08 06:40:34;;;;;;;6.30;5.03;;;;;;;2.13;100.00;99485.94;5225052;28;20036;-77
2023/03/08 06:43:05;;;;;;;6.68;5.25;;;;;;;2.06;100.00;99472.63;5236725;28;20136;-76
2023/03/08 06:45:37;;;;;;;5.90;4.40;;;;;;;2.09;100.00;99477.56;5221985;28;20030;-76
2023/03/08 06:48:08;;;;;;;8.05;4.30;;;;;;;2.02;100.00;99472.97;5223931;28;20045;-76
2023/03/08 06:50:40;;;;;;;8.07;4.57;;;;;;;2.04;100.00;99484.81;5225200;28;20506;-76
2023/03/08 06:53:12;;;;;;;7.93;4.45;;;;;;;2.02;100.00;99485.88;5225249;28;20099;-77
2023/03/08 06:55:43;;;;;;;7.15;3.95;;;;;;;2.05;100.00;99501.16;5223816;28;20399;-76
2023/03/08 06:58:15;;;;;;;6.82;3.97;;;;;;;1.99;100.00;99480.91;5226320;28;20032;-76
2023/03/08 07:00:46;;;;;;;6.95;3.92;;;;;;;2.00;100.00;99493.72;5223748;28;20026;-77
2023/03/08 07:03:17;;;;;;;4.65;3.20;;;;;;;1.98;100.00;99490.44;5239323;28;20034;-76
2023/03/08 07:05:48;;;;;;;5.63;3.50;;;;;;;1.85;100.00;99466.38;5224583;28;20310;-76
2023/03/08 07:08:20;;;;;;;5.03;3.13;;;;;;;1.91;100.00;99466.78;5226107;28;20040;-78
2023/03/08 07:10:51;;;;;;;4.30;2.85;;;;;;;1.80;100.00;99464.13;5221406;28;20026;-76
2023/03/08 07:13:23;;;;;;;6.18;2.88;;;;;;;1.87;100.00;99478.28;5224073;28;20510;-77
2023/03/08 07:15:55;;;;;;;4.13;2.78;;;;;;;1.94;100.00;99460.59;5237594;28;20026;-76
2023/03/08 07:18:26;;;;;;;4.40;3.05;;;;;;;1.90;100.00;99470.31;5222165;28;20501;-77
2023/03/08 07:20:58;;;;;;;5.30;3.05;;;;;;;1.86;100.00;99455.16;5226070;28;20112;-77
2023/03/08 07:23:29;;;;;;;4.90;3.20;;;;;;;1.88;100.00;99464.41;5224007;28;20057;-77
2023/03/08 07:26:09;;;;;;;5.28;3.33;;;;;;;2.01;100.00;99460.97;5210090;28;20069;-78
2023/03/08 07:28:40;;;;;;;7.25;3.35;;;;;;;1.90;100.00;99456.59;5217549;28;20037;-77
2023/03/08 07:31:11;;;;;;;6.53;3.00;;;;;;;1.89;100.00;99445.41;5221582;28;20092;-76
2023/03/08 07:33:43;;;;;;;5.78;2.80;;;;;;;1.80;100.00;99440.91;5223538;28;20036;-76
2023/03/08 07:36:15;;;;;;;4.10;2.50;;;;;;;1.87;100.00;99444.69;5224050;28;20108;-76
2023/03/08 07:38:46;;;;;;;5.72;3.15;;;;;;;1.87;100.00;99433.56;5225099;28;20026;-80
2023/03/08 07:41:18;;;;;;;4.78;3.40;;;;;;;1.82;100.00;99428.72;5219636;28;20034;-76
2023/03/08 07:43:49;;;;;;;4.65;3.03;;;;;;;1.89;100.00;99435.06;5220197;28;20034;-76
2023/03/08 07:46:20;;;;;;;4.30;2.97;;;;;;;1.95;100.00;99433.81;5224752;28;20038;-77
2023/03/08 07:48:52;;;;;;;4.63;3.17;;;;;;;1.88;100.00;99423.09;5223919;28;20030;-77
2023/03/08 07:51:23;;;;;;;4.88;3.40;;;;;;;1.93;100.00;99430.50;5226112;28;20742;-77
2023/03/08 07:53:55;;;;;;;5.72;3.97;;;;;;;1.84;100.00;99411.34;5222255;28;20025;-77
2023/03/08 07:56:26;;;;;;;5.43;4.13;;;;;;;2.00;100.00;99431.72;5219789;28;20029;-79
2023/03/08 07:58:58;;;;;;;7.00;4.28;;;;;;;2.01;100.00;99423.06;5216407;28;20025;-76
2023/03/08 08:01:29;;;;;;;5.60;4.60;;;;;;;1.97;100.00;99416.47;5221738;28;20087;-77
2023/03/08 08:04:00;;;;;;;6.50;5.03;;;;;;;1.85;100.00;99405.22;5222521;28;20040;-77
2023/03/08 08:06:34;;;;;;;6.93;5.57;;;;;;;1.94;100.00;99391.69;5220991;28;20028;-77
2023/03/08 08:09:07;;;;;;;6.47;5.03;;;;;;;1.88;100.00;99402.44;5221690;28;20025;-77
2023/03/08 08:11:38;;;;;;;8.00;5.78;;;;;;;2.02;100.00;99416.94;5219233;28;20036;-77
2023/03/08 08:14:10;;;;;;;8.20;6.20;;;;;;;2.07;100.00;99412.25;5220747;28;20029;-77
2023/03/08 08:16:41;;;;;;;6.00;5.18;;;;;;;2.09;100.00;99410.41;5220775;28;20056;-77
2023/03/08 08:19:13;;;;;;;6.85;5.65;;;;;;;1.96;100.00;99391.56;5220390;28;20026;-78
2023/03/08 08:21:45;;;;;;;8.05;6.10;;;;;;;2.07;100.00;99391.59;5222922;28;20032;-78
2023/03/08 08:24:16;;;;;;;6.80;6.00;;;;;;;2.06;100.00;99377.03;5221571;28;20022;-77
2023/03/08 08:26:47;;;;;;;7.88;6.15;;;;;;;2.06;100.00;99376.22;5220569;28;20034;-77
2023/03/08 08:29:19;;;;;;;6.90;5.90;;;;;;;2.00;100.00;99361.97;5222167;28;20042;-76
2023/03/08 08:31:54;;;;;;;8.00;7.20;;;;;;;1.91;100.00;99363.50;5220199;28;20550;-77
2023/03/08 08:34:25;;;;;;;8.75;6.82;;;;;;;2.03;100.00;99376.44;5215442;28;20483;-76
2023/03/08 08:36:56;;;;;;;8.70;7.80;;;;;;;1.89;100.00;99352.44;5222239;28;20040;-76
2023/03/08 08:39:27;;;;;;;9.43;7.18;;;;;;;2.01;100.00;99363.66;5233751;28;20026;-76
2023/03/08 08:41:59;;;;;;;7.35;6.05;;;;;;;1.94;100.00;99352.94;5214675;28;20052;-76
2023/03/08 08:44:30;;;;;;;7.15;6.35;;;;;;;1.97;100.00;99353.63;5221943;28;20092;-76
2023/03/08 08:47:02;;;;;;;7.28;5.45;;;;;;;2.03;100.00;99358.38;5219356;28;20049;-76
2023/03/08 08:49:33;;;;;;;6.78;5.78;;;;;;;1.90;100.00;99343.78;5215738;28;20032;-76
2023/03/08 08:52:04;;;;;;;8.23;5.88;;;;;;;1.97;100.00;99363.97;5218513;28;21181;-76
2023/03/08 08:54:38;;;;;;;6.40;5.72;;;;;;;2.04;100.00;99380.66;5219321;28;20029;-76
2023/03/08 08:57:09;;;;;;;8.13;6.05;;;;;;;1.97;100.00;99364.81;5218884;28;20337;-76
2023/03/08 08:59:42;;;;;;;6.28;5.53;;;;;;;2.08;100.00;99397.59;5219170;28;20030;-76
2023/03/08 09:02:14;;;;;;;6.10;5.38;;;;;;;2.13;100.00;99391.16;5218541;28;20356;-76
2023/03/08 09:04:45;;;;;;;6.40;5.60;;;;;;;2.10;100.00;99381.06;5234670;28;20092;-75
2023/03/08 09:07:16;;;;;;;8.13;7.00;;;;;;;2.10;100.00;99396.56;5227214;28;20026;-75
2023/03/08 09:09:48;;;;;;;8.02;6.70;;;;;;;2.11;100.00;99398.19;5226563;28;20414;-75
2023/03/08 09:12:19;;;;;;;7.88;6.65;;;;;;;2.02;100.00;99370.47;5225855;28;20490;-75
2023/03/08 09:14:51;;;;;;;8.32;7.47;;;;;;;2.08;100.00;99361.44;5224919;28;20037;-75
2023/03/08 09:17:22;;;;;;;8.90;7.43;;;;;;;2.03;100.00;99343.69;5225563;28;20434;-75
2023/03/08 09:19:53;;;;;;;8.25;7.22;;;;;;;2.10;100.00;99336.31;5223885;28;20025;-75
2023/03/08 09:22:25;;;;;;;7.75;6.85;;;;;;;2.02;100.00;99329.13;5237065;28;20037;-75
2023/03/08 09:24:56;;;;;;;8.57;7.40;;;;;;;2.03;100.00;99315.28;5223051;28;20559;-75
2023/03/08 09:27:28;;;;;;;9.25;8.25;;;;;;;2.01;100.00;99322.31;5226229;28;20112;-75
2023/03/08 09:29:59;;;;;;;9.40;7.70;;;;;;;2.01;100.00;99314.56;5221787;28;20454;-75
2023/03/08 09:32:34;;;;;;;9.75;8.75;;;;;;;2.02;100.00;99307.66;5225549;28;20025;-74
2023/03/08 09:35:06;;;;;;;10.77;8.50;;;;;;;2.01;100.00;99309.41;5226533;28;20131;-74
2023/03/08 09:37:37;;;;;;;8.18;7.30;;;;;;;2.09;100.00;99303.69;5240613;28;20567;-74
2023/03/08 09:40:18;;;;;;;8.75;7.72;;;;;;;2.26;100.00;99308.41;5221419;28;20087;-74
2023/03/08 09:42:50;;;;;;;6.95;6.00;;;;;;;2.17;100.00;99303.94;5226926;28;20029;-74
2023/03/08 09:45:25;;;;;;;7.03;5.75;;;;;;;2.12;100.00;99296.53;5224636;28;20032;-74
2023/03/08 09:48:05;;;;;;;7.95;5.82;;;;;;;2.19;100.00;99292.53;5225926;28;20053;-74
2023/03/08 09:50:46;;;;;;;8.50;6.10;;;;;;;2.30;100.00;99288.31;5220014;28;20479;-74
2023/03/08 09:53:41;;;;;;;7.82;6.20;;;;;;;2.32;100.00;99279.53;5226267;28;20424;-74
2023/03/08 09:56:28;;;;;;;7.40;6.63;;;;;;;2.43;100.00;99286.47;5222217;28;20042;-74
2023/03/08 09:59:06;;;;;;;8.38;6.63;;;;;;;2.43;100.00;99289.06;5238588;28;20045;-74
2023/03/08 10:02:01;;;;;;;8.05;7.03;;;;;;;2.47;100.00;99279.31;5225454;28;20022;-75
2023/03/08 10:05:05;;;;;;;10.00;7.32;;;;;;;2.64;100.00;99271.88;5223531;28;20024;-74
2023/03/08 10:07:55;;;;;;;9.25;8.15;;;;;;;2.47;100.00;99272.38;5221517;28;20036;-75
2023/03/08 10:10:40;;;;;;;10.13;9.05;;;;;;;2.62;100.00;99266.00;5225370;28;20471;-74
2023/03/08 10:13:35;;;;;;;10.73;9.45;;;;;;;2.78;100.00;99286.34;5223156;28;20030;-74
2023/03/08 10:16:43;;;;;;;12.13;10.80;;;;;;;2.80;100.00;99294.78;5224966;28;20057;-75
2023/03/08 10:19:34;;;;;;;12.93;11.32;;;;;;;2.77;100.00;99283.88;5222029;28;20386;-75
2023/03/08 10:22:28;;;;;;;13.15;11.85;;;;;;;2.82;100.00;99271.41;5223774;28;20025;-75
2023/03/08 10:25:14;;;;;;;13.13;11.73;;;;;;;2.79;100.00;99274.22;5222303;28;20034;-75
2023/03/08 10:27:50;;;;;;;15.68;13.98;;;;;;;2.75;100.00;99281.41;5219928;28;20033;-74
2023/03/08 10:30:26;;;;;;;14.80;13.30;;;;;;;2.75;100.00;99259.88;5222997;28;20113;-74
2023/03/08 10:33:02;;;;;;;16.05;14.30;;;;;;;2.63;100.00;99274.59;5219668;28;20057;-74
2023/03/08 10:36:17;;;;;;;15.35;13.80;;;;;;;2.96;100.00;99275.50;5234992;28;20026;-74
2023/03/08 10:39:04;;;;;;;14.27;12.77;;;;;;;2.80;100.00;99250.00;5215491;28;20046;-73
2023/03/08 10:41:49;;;;;;;14.32;12.82;;;;;;;2.89;100.00;99241.53;5219476;28;20029;-75
2023/03/08 10:44:35;;;;;;;14.82;13.32;;;;;;;2.97;100.00;99236.56;5212684;28;20029;-75
2023/03/08 10:47:18;;;;;;;14.88;13.32;;;;;;;2.95;100.00;99238.44;5232926;28;20051;-75
2023/03/08 10:50:08;;;;;;;14.05;12.55;;;;;;;2.99;100.00;99242.44;5219197;28;20025;-75
2023/03/08 10:52:49;;;;;;;13.32;11.93;;;;;;;2.81;100.00;99236.97;5217618;28;20519;-75
2023/03/08 10:55:27;;;;;;;14.23;12.50;;;;;;;2.95;100.00;99237.63;5218724;28;20026;-75
2023/03/08 10:58:00;;;;;;;13.70;12.30;;;;;;;2.82;100.00;99248.13;5220641;28;20037;-75
2023/03/08 11:00:35;;;;;;;15.10;12.48;;;;;;;2.91;100.00;99261.16;5216197;28;20117;-76
2023/03/08 11:03:20;;;;;;;14.10;12.60;;;;;;;3.13;100.00;99262.06;5215805;28;20041;-77
2023/03/08 11:05:58;;;;;;;14.32;12.82;;;;;;;3.03;100.00;99264.56;5217416;28;20140;-76
2023/03/08 11:08:34;;;;;;;14.15;12.52;;;;;;;3.00;100.00;99262.22;5239126;28;20087;-77
2023/03/08 11:11:11;;;;;;;13.70;12.30;;;;;;;2.91;100.00;99262.91;5221005;28;20364;-76
2023/03/08 11:13:45;;;;;;;14.75;13.05;;;;;;;2.95;100.00;99248.78;5223931;28;20805;-76
2023/03/08 11:16:58;;;;;;;13.60;11.65;;;;;;;3.15;100.00;99260.19;5222788;28;20029;-76
2023/03/08 11:19:39;;;;;;;13.85;12.45;;;;;;;2.97;100.00;99257.28;5238902;28;20074;-76
2023/03/08 11:22:33;;;;;;;14.07;12.52;;;;;;;3.01;100.00;99234.56;5219815;28;20025;-76
2023/03/08 11:25:08;;;;;;;13.32;11.93;;;;;;;3.00;100.00;99225.19;5223875;28;20036;-76
2023/03/08 11:27:41;;;;;;;13.77;12.30;;;;;;;2.97;100.00;99246.09;5222017;28;20041;-76
2023/03/08 11:30:24;;;;;;;13.55;12.10;;;;;;;3.10;100.00;99244.19;5223746;28;20474;-76
2023/03/08 11:32:58;;;;;;;13.25;11.95;;;;;;;3.08;100.00;99246.09;5221577;28;20390;-76
2023/03/08 11:35:55;;;;;;;12.52;11.23;;;;;;;3.07;100.00;99247.84;5225116;28;20037;-76
2023/03/08 11:38:29;;;;;;;11.52;10.40;;;;;;;3.05;100.00;99234.19;5221994;28;20113;-76
2023/03/08 11:41:23;;;;;;;11.80;10.68;;;;;;;3.13;100.00;99228.41;5219319;28;20029;-76
2023/03/08 11:43:57;;;;;;;12.18;10.88;;;;;;;3.28;100.00;99216.00;5224138;28;20029;-76
2023/03/08 11:46:46;;;;;;;11.57;10.45;;;;;;;3.29;100.00;99213.28;5219703;28;20037;-76
2023/03/08 11:50:06;;;;;;;11.55;10.38;;;;;;;3.42;100.00;99210.56;5222936;28;20018;-76
2023/03/08 11:53:06;;;;;;;10.68;9.65;;;;;;;3.33;100.00;99212.13;5208498;28;20681;-77
2023/03/08 11:56:16;;;;;;;10.60;9.32;;;;;;;3.30;100.00;99206.38;5221056;28;20056;-76